• Join FlightAware (Why Join?)
  • Login
  • US Flag 
03:04AM EST


 

Airport Tracker/Info


-or-


 

Live Flight TrackerFlight Track Log ✈ N8659B ✈ 08-May-2012 ✈ KDTW - KUNV

Flight Track Log - Related Links

Times and Time Zones

All times are in EDT time to prevent confusion due to time zone crossing. See the N8659B flight status page for this flight to view local times or setup timezone preferences in your user account.

Time Position Orientation Groundspeed Altitude Reporting Facility
EDT Latitude Longitude Course Direction KTS MPH feet Rate Location/Type
03:50PM 42.2017 -83.3583 171° South 165 190 1,200  Level Cleveland Center
03:50PM 42.1794 -83.3533 176° South 177 204 2,000 1,800 Climbing FAA TRACON SMA TRACON (SMA)
03:51PM 42.1386 -83.3497 177° South 215 247 3,400 1,800 Climbing FAA TRACON SMA TRACON (SMA)
03:51PM 42.0983 -83.3469 167° South 232 267 4,500 2,280 Climbing FAA TRACON SMA TRACON (SMA)
03:52PM 42.0464 -83.3308 113° Southeast 276 318 6,500 2,820 Climbing FAA TRACON SMA TRACON (SMA)
03:53PM 42.0278 -83.2706 71° East 295 339 8,300 2,280 Climbing FAA TRACON SMA TRACON (SMA)
03:53PM 42.0464 -83.1958 71° East 310 357 9,600 2,160 Climbing FAA TRACON SMA TRACON (SMA)
03:54PM 42.0661 -83.1169 72° East 320 368 11,200 1,380 Climbing FAA TRACON SMA TRACON (SMA)
03:55PM 42.0867 -83.0311 72° East 362 417 11,500 480 Climbing FAA TRACON SMA TRACON (SMA)
03:55PM 42.1075 -82.9442 72° East 386 444 11,900 1,200 Climbing FAA TRACON SMA TRACON (SMA)
03:56PM 42.1314 -82.8453 72° East 401 461 13,100 1,860 Climbing FAA TRACON SMA TRACON (SMA)
03:57PM 42.1542 -82.7492 88° East 398 458 14,400 1,800 Climbing FAA TRACON SMA TRACON (SMA)
03:57PM 42.1567 -82.6594 107° East 386 444 15,500 1,560 Climbing FAA TRACON SMA TRACON (SMA)
03:58PM 42.1347 -82.5656 108° East 381 438 16,500 1,320 Climbing FAA TRACON SMA TRACON (SMA)
03:59PM 42.1125 -82.4728 108° East 384 442 17,300 1,260 Climbing FAA TRACON SMA TRACON (SMA)
03:59PM 42.0903 -82.3819 108° East 392 451 18,200 1,320 Climbing FAA TRACON SMA TRACON (SMA)
04:00PM 42.0681 -82.2886 108° East 395 455 19,100 1,200 Climbing FAA TRACON SMA TRACON (SMA)
04:01PM 42.0500 -82.2119 109° East 397 457 19,800 1,140 Climbing FAA TRACON SMA TRACON (SMA)
04:02PM 41.9989 -82.0108 109° East 400 460 21,500 1,080 Climbing Cleveland Center
04:03PM 41.9531 -81.8283 109° East 419 482 22,600 900 Climbing Cleveland Center
04:04PM 41.9150 -81.6797 107° East 425 489 23,500 840 Climbing Cleveland Center
04:05PM 41.8831 -81.5425 110° East 430 495 24,300 720 Climbing Cleveland Center
04:06PM 41.8364 -81.3747 108° East 430 495 25,000 300 Climbing Cleveland Center
04:07PM 41.7917 -81.1958 109° East 443 510 25,000  Level Cleveland Center
04:08PM 41.7506 -81.0339 109° East 450 518 25,000  Level Cleveland Center
04:09PM 41.7178 -80.9058 109° East 455 524 25,000  Level Cleveland Center
04:11PM 41.6578 -80.6778 110° East 460 529 25,000  Level Cleveland Center
04:12PM 41.6161 -80.5219 109° East 454 522 25,000  Level Cleveland Center
04:13PM 41.5742 -80.3639 108° East 449 517 25,000  Level Cleveland Center
04:14PM 41.5256 -80.1700 109° East 449 517 25,000 -360 Level Cleveland Center
04:15PM 41.4833 -80.0094 111° Southeast 449 517 24,300 -540 Descending Cleveland Center
04:16PM 41.4514 -79.8961 111° Southeast 458 527 24,000 -180 Descending Cleveland Center
04:17PM 41.3981 -79.7083 110° East 458 527 24,000  Level Cleveland Center
04:18PM 41.3506 -79.5347 109° East 451 519 24,000  Level Cleveland Center
04:19PM 41.3181 -79.4081 111° Southeast 451 519 24,000 -840 Level Cleveland Center
04:20PM 41.2661 -79.2322 110° East 451 519 22,400 -1,920 Descending Cleveland Center
04:21PM 41.2247 -79.0786 110° East 446 513 20,200 -2,340 Descending Cleveland Center
04:22PM 41.1611 -78.8497 110° East 424 488 16,500 -2,160 Descending New York Center
04:23PM 41.1294 -78.7328 112° Southeast 390 449 14,800 -1,800 Descending New York Center
04:24PM 41.0847 -78.5897 96° East 374 430 13,000 -1,740 Descending New York Center
04:25PM 41.0744 -78.4592 92° East 368 423 11,400 -960 Descending New York Center
04:26PM 41.0719 -78.3378 91° East 362 417 11,000 -720 Descending New York Center
04:27PM 41.0692 -78.1833 90° East 357 411 9,900 -1,380 Descending New York Center
04:29PM 41.0697 -78.0375 91° East 318 366 7,700 -1,620 Descending New York Center
04:30PM 41.0672 -77.9078 89° East 300 345 6,000 -780 Descending New York Center
04:31PM 41.0692 -77.8033 96° East 265 305 6,000  Level New York Center
04:32PM 41.0619 -77.7172 134° Southeast 244 281 6,000 -840 Level New York Center
04:33PM 41.0136 -77.6517 187° South 225 259 4,400 -900 Descending New York Center
04:34PM 40.9631 -77.6603 228° Southwest 180 207 4,200 -360 Descending New York Center
04:35PM 40.9311 -77.7067 234° Southwest 144 166 3,700 -660 Descending New York Center
04:36PM 40.9056 -77.7533 235° Southwest 149 171 2,900 -840 Descending New York Center
04:37PM 40.8844 -77.7925 220° Southwest 149 171 2,100 -600 Descending New York Center
04:38PM 40.8553 -77.8253 220° Southwest 149 171 1,800 -300 Descending New York Center